createdAt,value
2022-07-30T00:04:15.478Z,1.40
2022-07-30T00:09:14.944Z,1.50
2022-07-30T00:14:15.170Z,1.20
2022-07-30T00:19:15.344Z,1.40
2022-07-30T00:23:27.244Z,1.40
2022-07-30T00:24:15.287Z,1.40
2022-07-30T00:26:03.738Z,1.40
2022-07-30T00:28:12.563Z,1.50
2022-07-30T00:29:15.381Z,1.50
2022-07-30T00:34:15.267Z,1.50
2022-07-30T00:39:16.619Z,1.30
2022-07-30T00:44:14.830Z,1.20
2022-07-30T00:49:16.353Z,1.10
2022-07-30T00:54:15.906Z,1.40
2022-07-30T00:54:23.776Z,1.40
2022-07-30T00:59:15.472Z,1.50
2022-07-30T01:04:14.972Z,1.60
2022-07-30T01:09:14.840Z,1.80
2022-07-30T01:14:14.964Z,1.70
2022-07-30T01:19:30.657Z,1.30
2022-07-30T01:24:26.448Z,1.60
2022-07-30T01:27:57.361Z,1.60
2022-07-30T01:29:15.878Z,1.60
2022-07-30T01:31:59.029Z,1.40
2022-07-30T01:34:16.470Z,1.40
2022-07-30T01:39:17.350Z,1.60
2022-07-30T01:44:16.687Z,1.70
2022-07-30T01:49:15.566Z,1.30
2022-07-30T01:54:23.992Z,1.30
2022-07-30T01:59:18.745Z,1.50
2022-07-30T02:04:17.444Z,1.50
2022-07-30T02:05:51.394Z,1.40
2022-07-30T02:09:21.552Z,1.40
2022-07-30T02:14:21.153Z,1.40
2022-07-30T02:19:17.095Z,1.30
2022-07-30T02:23:21.348Z,1.20
2022-07-30T02:24:20.890Z,1.20
2022-07-30T02:26:26.255Z,1.30
2022-07-30T02:28:01.577Z,1.30
2022-07-30T02:29:17.155Z,1.30
2022-07-30T02:31:34.568Z,1.40
2022-07-30T02:34:15.873Z,1.40
2022-07-30T02:37:42.913Z,1.40
2022-07-30T02:39:16.080Z,1.40
2022-07-30T02:44:16.533Z,1.40
2022-07-30T02:49:18.576Z,1.90
2022-07-30T02:54:18.677Z,1.50
2022-07-30T02:59:17.740Z,1.80
2022-07-30T03:04:18.226Z,1.60
2022-07-30T03:09:16.760Z,1.40
2022-07-30T03:14:15.045Z,2.00
2022-07-30T03:19:22.788Z,1.70
2022-07-30T03:24:16.259Z,1.40
2022-07-30T03:29:21.919Z,1.50
2022-07-30T03:34:16.290Z,1.70
2022-07-30T03:39:16.566Z,1.30
2022-07-30T03:44:15.584Z,1.70
2022-07-30T03:49:16.304Z,1.60
2022-07-30T03:54:15.238Z,1.40
2022-07-30T03:59:16.238Z,1.30
2022-07-30T04:04:15.554Z,1.40
2022-07-30T04:09:15.028Z,1.50
2022-07-30T04:14:14.971Z,1.40
2022-07-30T04:19:21.013Z,1.30
2022-07-30T04:24:01.844Z,1.60
2022-07-30T04:24:16.206Z,1.60
2022-07-30T04:28:50.618Z,1.90
2022-07-30T04:29:18.096Z,1.90
2022-07-30T04:34:15.578Z,1.40
2022-07-30T04:39:16.652Z,1.40
2022-07-30T04:44:14.852Z,1.60
2022-07-30T04:49:18.211Z,1.30
2022-07-30T04:54:20.696Z,2.00
2022-07-30T04:59:16.426Z,1.60
2022-07-30T05:04:15.969Z,1.40
2022-07-30T05:09:15.157Z,1.50
2022-07-30T05:14:12.832Z,1.60
2022-07-30T05:14:14.370Z,1.60
2022-07-30T05:19:16.169Z,1.50
2022-07-30T05:24:14.728Z,1.50
2022-07-30T05:29:19.969Z,1.80
2022-07-30T05:34:16.335Z,1.50
2022-07-30T05:39:15.314Z,1.30
2022-07-30T05:44:17.064Z,1.20
2022-07-30T05:49:14.995Z,1.40
2022-07-30T05:54:14.720Z,1.60
2022-07-30T05:59:14.720Z,1.40
2022-07-30T06:04:15.420Z,1.70
2022-07-30T06:04:51.937Z,1.40
2022-07-30T06:09:14.705Z,1.40
2022-07-30T06:14:14.754Z,1.60
2022-07-30T06:19:20.402Z,1.80
2022-07-30T06:24:14.829Z,1.70
2022-07-30T06:26:17.785Z,2.20
2022-07-30T06:29:15.091Z,2.20
2022-07-30T06:34:15.069Z,1.60
2022-07-30T06:39:14.854Z,1.40
2022-07-30T06:44:14.897Z,1.70
2022-07-30T06:49:17.972Z,1.70
2022-07-30T06:54:14.634Z,1.40
2022-07-30T06:59:14.825Z,1.50
2022-07-30T07:04:15.418Z,1.80
2022-07-30T07:09:14.869Z,1.60
2022-07-30T07:14:14.920Z,1.80
2022-07-30T07:19:15.428Z,1.70
2022-07-30T07:24:14.878Z,1.50
2022-07-30T07:29:15.113Z,1.90
2022-07-30T07:34:17.139Z,1.70
2022-07-30T07:38:02.547Z,1.70
2022-07-30T07:39:15.091Z,1.80
2022-07-30T07:39:56.880Z,1.80
2022-07-30T07:41:57.525Z,1.80
2022-07-30T07:44:20.165Z,1.50
2022-07-30T07:46:37.148Z,1.50
2022-07-30T07:48:28.193Z,1.50
2022-07-30T07:49:14.729Z,2.20
2022-07-30T07:54:21.514Z,1.80
2022-07-30T07:59:15.737Z,1.80
2022-07-30T08:04:14.623Z,2.10
2022-07-30T08:09:14.805Z,2.10
2022-07-30T08:14:15.432Z,1.80
2022-07-30T08:19:14.753Z,2.10
2022-07-30T08:24:14.664Z,1.60
2022-07-30T08:29:17.229Z,1.50
2022-07-30T08:33:45.752Z,1.70
2022-07-30T08:34:15.156Z,1.70
2022-07-30T08:39:14.996Z,1.60
2022-07-30T08:44:17.680Z,1.70
2022-07-30T08:49:15.251Z,1.60
2022-07-30T08:54:15.953Z,1.90
2022-07-30T08:59:15.908Z,1.80
2022-07-30T09:04:14.680Z,1.60
2022-07-30T09:09:20.015Z,2.10
2022-07-30T09:14:14.953Z,2.70
2022-07-30T09:19:17.215Z,1.70
2022-07-30T09:24:14.588Z,1.80
2022-07-30T09:28:30.639Z,2.00
2022-07-30T09:29:15.786Z,2.00
2022-07-30T09:34:24.149Z,1.70
2022-07-30T09:37:46.924Z,1.70
2022-07-30T09:39:28.338Z,2.10
2022-07-30T09:41:38.878Z,2.10
2022-07-30T09:44:23.437Z,1.50
2022-07-30T09:44:32.817Z,1.50
2022-07-30T09:46:49.914Z,1.50
2022-07-30T09:49:15.814Z,1.70
2022-07-30T09:54:15.795Z,1.20
2022-07-30T09:58:38.734Z,1.70
2022-07-30T09:59:25.720Z,1.70
2022-07-30T10:04:23.622Z,1.40
2022-07-30T10:09:24.212Z,1.80
2022-07-30T10:14:15.923Z,1.60
2022-07-30T10:19:18.191Z,1.60
2022-07-30T10:24:16.915Z,1.80
2022-07-30T10:29:17.157Z,1.50
2022-07-30T10:34:23.601Z,1.70
2022-07-30T10:39:19.518Z,1.80
2022-07-30T10:44:35.043Z,1.60
2022-07-30T10:49:18.756Z,1.80
2022-07-30T10:54:39.177Z,1.80
2022-07-30T10:59:14.942Z,2.00
2022-07-30T11:04:20.281Z,1.80
2022-07-30T11:09:34.403Z,1.70
2022-07-30T11:14:15.326Z,2.50
2022-07-30T11:19:56.839Z,2.10
2022-07-30T11:24:34.396Z,2.50
2022-07-30T11:29:50.599Z,2.70
2022-07-30T11:34:26.662Z,2.70
2022-07-30T11:39:15.373Z,2.30
2022-07-30T11:44:25.321Z,2.20
2022-07-30T11:49:14.939Z,2.40
2022-07-30T11:54:15.664Z,2.50
2022-07-30T11:59:14.609Z,3.00
2022-07-30T12:04:14.555Z,3.20
2022-07-30T12:09:22.712Z,2.90
2022-07-30T12:14:15.558Z,3.40
2022-07-30T12:19:14.566Z,3.00
2022-07-30T12:24:15.414Z,3.20
2022-07-30T12:29:14.710Z,3.50
2022-07-30T12:34:19.326Z,3.30
2022-07-30T12:39:19.922Z,3.40
2022-07-30T12:44:34.312Z,3.40
2022-07-30T12:49:21.425Z,3.40
2022-07-30T12:54:17.431Z,3.20
2022-07-30T12:59:20.828Z,3.50
2022-07-30T13:04:14.972Z,4.00
2022-07-30T13:09:19.140Z,3.10
2022-07-30T13:14:16.063Z,3.20
2022-07-30T13:19:14.746Z,3.10
2022-07-30T13:24:18.096Z,4.20
2022-07-30T13:29:14.803Z,3.10
2022-07-30T13:34:19.163Z,3.00
2022-07-30T13:39:14.502Z,3.40
2022-07-30T13:44:15.029Z,3.00
2022-07-30T13:49:14.643Z,2.70
2022-07-30T13:54:14.605Z,3.20
2022-07-30T13:59:14.750Z,2.90
2022-07-30T14:04:15.051Z,3.30
2022-07-30T14:09:14.494Z,3.40
2022-07-30T14:14:14.471Z,3.00
2022-07-30T14:19:23.741Z,4.20
2022-07-30T14:24:15.534Z,4.30
2022-07-30T14:29:14.621Z,3.60
2022-07-30T14:34:16.779Z,3.50
2022-07-30T14:39:14.437Z,3.80
2022-07-30T14:44:14.948Z,3.20
2022-07-30T14:49:15.578Z,2.90
2022-07-30T14:54:14.669Z,3.20
2022-07-30T14:59:19.531Z,3.60
2022-07-30T15:04:14.639Z,3.60
2022-07-30T15:09:14.648Z,4.00
2022-07-30T15:14:15.022Z,3.70
2022-07-30T15:19:14.523Z,3.20
2022-07-30T15:24:14.688Z,3.80
2022-07-30T15:29:15.155Z,3.60
2022-07-30T15:34:14.367Z,2.80
2022-07-30T15:39:15.519Z,3.30
2022-07-30T15:44:14.821Z,2.90
2022-07-30T15:49:14.971Z,2.80
2022-07-30T15:54:15.872Z,2.90
2022-07-30T15:59:14.437Z,2.60
2022-07-30T16:04:19.539Z,2.50
2022-07-30T16:09:15.067Z,2.40
2022-07-30T16:14:18.188Z,2.70
2022-07-30T16:19:14.563Z,2.20
2022-07-30T16:24:20.098Z,2.50
2022-07-30T16:29:14.318Z,2.00
2022-07-30T16:34:15.573Z,2.20
2022-07-30T16:39:14.810Z,2.30
2022-07-30T16:44:15.066Z,2.30
2022-07-30T16:49:14.772Z,2.00
2022-07-30T16:54:16.455Z,2.20
2022-07-30T16:59:16.124Z,2.30
2022-07-30T17:04:15.141Z,2.50
2022-07-30T17:09:15.976Z,2.40
2022-07-30T17:14:14.752Z,2.20
2022-07-30T17:19:14.361Z,2.40
2022-07-30T17:24:14.847Z,2.40
2022-07-30T17:29:15.632Z,2.80
2022-07-30T17:34:19.097Z,2.80
2022-07-30T17:39:18.165Z,3.10
2022-07-30T17:44:14.369Z,3.00
2022-07-30T17:49:19.480Z,3.00
2022-07-30T17:54:15.129Z,3.60
2022-07-30T17:59:15.600Z,3.70
2022-07-30T18:04:14.347Z,3.40
2022-07-30T18:09:15.023Z,3.40
2022-07-30T18:14:14.580Z,3.00
2022-07-30T18:19:22.568Z,3.30
2022-07-30T18:24:15.090Z,3.10
2022-07-30T18:29:14.362Z,3.20
2022-07-30T18:34:14.597Z,3.60
2022-07-30T18:39:14.806Z,3.50
2022-07-30T18:44:14.343Z,3.30
2022-07-30T18:49:26.955Z,3.40
2022-07-30T18:54:15.976Z,3.10
2022-07-30T18:59:14.612Z,3.10
2022-07-30T19:04:15.730Z,3.10
2022-07-30T19:09:17.580Z,2.50
2022-07-30T19:14:14.845Z,2.80
2022-07-30T19:19:14.521Z,2.70
2022-07-30T19:24:16.959Z,2.50
2022-07-30T19:29:14.283Z,2.60
2022-07-30T19:34:14.376Z,2.50
2022-07-30T19:39:21.636Z,3.10
2022-07-30T19:44:18.542Z,2.80
2022-07-30T19:49:14.733Z,2.60
2022-07-30T19:54:15.794Z,2.60
2022-07-30T19:59:15.196Z,2.80
2022-07-30T20:04:14.458Z,2.90
2022-07-30T20:09:15.449Z,3.00
2022-07-30T20:14:16.202Z,2.90
2022-07-30T20:19:15.779Z,2.60
2022-07-30T20:24:17.055Z,3.10
2022-07-30T20:29:19.180Z,2.60
2022-07-30T20:34:16.311Z,3.20
2022-07-30T20:39:18.326Z,2.80
2022-07-30T20:44:23.372Z,2.80
2022-07-30T20:49:19.695Z,2.80
2022-07-30T20:54:14.193Z,2.90
2022-07-30T20:59:14.879Z,2.80
2022-07-30T21:04:24.009Z,2.80
2022-07-30T21:09:14.420Z,2.90
2022-07-30T21:14:14.281Z,3.30
2022-07-30T21:19:16.384Z,3.70
2022-07-30T21:24:17.654Z,4.50
2022-07-30T21:29:14.836Z,3.60
2022-07-30T21:34:07.022Z,3.90
2022-07-30T21:34:14.166Z,3.90
2022-07-30T21:39:14.382Z,3.10
2022-07-30T21:44:15.193Z,3.50
2022-07-30T21:49:14.212Z,3.90
2022-07-30T21:59:14.816Z,4.00
2022-07-30T22:04:14.296Z,4.20
2022-07-30T22:09:19.675Z,3.90
2022-07-30T22:14:18.165Z,3.70
2022-07-30T22:19:14.724Z,3.80
2022-07-30T22:24:29.806Z,3.60
2022-07-30T22:29:14.487Z,4.10
2022-07-30T22:34:16.773Z,4.20
2022-07-30T22:39:14.602Z,4.10
2022-07-30T22:44:15.013Z,3.90
2022-07-30T22:54:14.179Z,4.20
2022-07-30T22:59:15.546Z,4.30
2022-07-30T23:04:14.140Z,4.20
2022-07-30T23:09:14.222Z,4.00
2022-07-30T23:12:27.818Z,4.00
2022-07-30T23:12:30.540Z,4.00
2022-07-30T23:14:15.388Z,4.20
2022-07-30T23:19:21.759Z,4.60
2022-07-30T23:24:17.763Z,4.00
2022-07-30T23:29:15.914Z,3.80
2022-07-30T23:34:14.508Z,3.50
2022-07-30T23:39:18.634Z,4.40
2022-07-30T23:44:14.123Z,4.60
2022-07-30T23:49:14.605Z,4.00
2022-07-30T23:54:14.253Z,4.50
2022-07-30T23:59:14.339Z,4.40
